Opelika, Alabama
Current Conditions -  °F | °C
As of 3:35 PM on Sunday 21 Dec 2014 (Local Time) from KAUO Reporting Station
Overcast Overcast  
Wind Chill: 46°   Ceiling: 800
Heat Index: 48°   Visibility: 8mi
Dew Point: 45°   Wind: 6mph
Humidity: 87%   Direction: 60°ENE
Pressure: 30.11"   Gusts: NA
Location:  32.65°N, 85.38°W
Report Text: KAUO 212135Z AUTO 06005KT 8SM OVC008 09/07 A3011 RMK AO1
Loading
Personal Weather Stations






























Interactive Weather Map New forecast layout! Learn more

10-Day Weather Forecast

Advertisements
Track Severe Weather on mobile